createdAt,value
2022-08-12T00:01:04.827Z,2.47
2022-08-12T00:03:50.966Z,2.30
2022-08-12T00:06:39.524Z,2.35
2022-08-12T00:09:26.516Z,2.45
2022-08-12T00:12:13.459Z,2.55
2022-08-12T00:15:01.105Z,2.15
2022-08-12T00:17:47.231Z,2.50
2022-08-12T00:20:33.164Z,2.85
2022-08-12T00:23:18.687Z,2.78
2022-08-12T00:26:23.063Z,3.00
2022-08-12T00:29:13.588Z,2.33
2022-08-12T00:32:00.988Z,2.60
2022-08-12T00:34:49.280Z,2.20
2022-08-12T00:37:36.189Z,2.40
2022-08-12T00:40:28.545Z,2.88
2022-08-12T00:42:57.102Z,2.92
2022-08-12T00:45:24.971Z,2.67
2022-08-12T00:47:53.588Z,2.78
2022-08-12T00:50:22.723Z,2.50
2022-08-12T00:52:52.615Z,2.58
2022-08-12T00:55:20.513Z,2.65
2022-08-12T00:57:50.125Z,2.60
2022-08-12T01:00:21.534Z,2.85
2022-08-12T01:02:57.578Z,2.67
2022-08-12T01:05:44.709Z,2.72
2022-08-12T01:08:30.383Z,2.92
2022-08-12T01:11:16.258Z,2.60
2022-08-12T01:13:50.274Z,2.78
2022-08-12T01:16:22.692Z,2.80
2022-08-12T01:18:52.685Z,2.85
2022-08-12T01:21:56.864Z,3.03
2022-08-12T01:24:31.386Z,2.75
2022-08-12T01:27:01.424Z,3.23
2022-08-12T01:29:33.055Z,3.20
2022-08-12T01:32:06.322Z,3.15
2022-08-12T01:34:39.531Z,3.30
2022-08-12T01:37:09.064Z,3.10
2022-08-12T01:40:31.623Z,3.20
2022-08-12T01:42:42.143Z,3.13
2022-08-12T01:45:10.236Z,3.17
2022-08-12T01:47:45.658Z,3.03
2022-08-12T01:50:55.127Z,3.38
2022-08-12T01:53:50.374Z,3.38
2022-08-12T01:56:22.120Z,2.97
2022-08-12T01:59:13.429Z,2.80
2022-08-12T02:01:41.713Z,3.25
2022-08-12T02:05:04.761Z,3.47
2022-08-12T02:08:09.317Z,2.70
2022-08-12T02:11:29.465Z,3.28
2022-08-12T02:14:00.346Z,3.15
2022-08-12T02:16:38.770Z,2.90
2022-08-12T02:19:49.896Z,2.87
2022-08-12T02:22:22.363Z,2.80
2022-08-12T02:24:50.959Z,3.00
2022-08-12T02:27:19.906Z,3.37
2022-08-12T02:29:48.455Z,3.40
2022-08-12T02:32:16.150Z,3.30
2022-08-12T02:34:44.679Z,2.93
2022-08-12T02:37:15.666Z,3.13
2022-08-12T02:39:49.830Z,3.03
2022-08-12T02:42:20.689Z,3.50
2022-08-12T02:44:51.568Z,3.23
2022-08-12T02:47:59.319Z,3.10
2022-08-12T02:50:10.953Z,2.90
2022-08-12T02:52:39.013Z,3.00
2022-08-12T02:55:28.733Z,3.07
2022-08-12T02:58:07.081Z,3.03
2022-08-12T03:00:37.925Z,3.40
2022-08-12T03:03:10.314Z,3.10
2022-08-12T03:05:45.778Z,2.90
2022-08-12T03:08:32.201Z,3.40
2022-08-12T03:11:14.410Z,3.57
2022-08-12T03:13:46.943Z,3.30
2022-08-12T03:16:14.881Z,3.30
2022-08-12T03:18:46.284Z,3.30
2022-08-12T03:21:17.109Z,3.20
2022-08-12T03:23:46.112Z,3.07
2022-08-12T03:26:14.881Z,2.93
2022-08-12T03:28:52.046Z,3.13
2022-08-12T03:31:21.896Z,3.33
2022-08-12T03:34:00.707Z,3.37
2022-08-12T03:36:35.512Z,3.70
2022-08-12T03:39:18.905Z,3.17
2022-08-12T03:41:52.037Z,3.53
2022-08-12T03:44:53.751Z,3.20
2022-08-12T03:47:53.825Z,3.40
2022-08-12T03:50:39.810Z,3.10
2022-08-12T03:53:29.025Z,3.13
2022-08-12T03:56:15.163Z,3.37
2022-08-12T03:59:00.942Z,2.87
2022-08-12T04:01:27.971Z,3.20
2022-08-12T04:03:55.436Z,3.50
2022-08-12T04:06:34.527Z,3.10
2022-08-12T04:09:16.267Z,3.30
2022-08-12T04:12:03.420Z,2.93
2022-08-12T04:14:31.385Z,3.57
2022-08-12T04:16:58.563Z,3.57
2022-08-12T04:19:26.596Z,3.77
2022-08-12T04:22:02.429Z,4.23
2022-08-12T04:24:35.488Z,3.60
2022-08-12T04:27:05.783Z,3.17
2022-08-12T04:30:29.374Z,2.80
2022-08-12T04:32:21.443Z,3.30
2022-08-12T04:34:48.491Z,3.10
2022-08-12T04:37:16.687Z,3.50
2022-08-12T04:39:46.042Z,3.27
2022-08-12T04:42:13.411Z,3.53
2022-08-12T04:44:40.292Z,3.47
2022-08-12T04:47:11.787Z,3.30
2022-08-12T04:49:40.981Z,3.67
2022-08-12T04:52:08.284Z,3.07
2022-08-12T04:54:35.931Z,3.03
2022-08-12T04:57:04.351Z,3.13
2022-08-12T04:59:43.705Z,3.90
2022-08-12T05:02:21.302Z,4.33
2022-08-12T05:04:58.849Z,3.40
2022-08-12T05:07:28.072Z,3.57
2022-08-12T05:10:01.031Z,3.60
2022-08-12T05:12:38.645Z,3.07
2022-08-12T05:15:19.563Z,3.20
2022-08-12T05:17:55.627Z,3.40
2022-08-12T05:20:23.116Z,3.20
2022-08-12T05:22:56.937Z,3.43
2022-08-12T05:25:25.182Z,3.50
2022-08-12T05:27:58.630Z,3.03
2022-08-12T05:30:27.955Z,3.67
2022-08-12T05:32:59.856Z,2.97
2022-08-12T05:35:27.081Z,2.80
2022-08-12T05:38:13.886Z,3.22
2022-08-12T05:40:42.079Z,3.00
2022-08-12T05:43:09.210Z,3.95
2022-08-12T05:45:38.341Z,3.88
2022-08-12T05:48:08.756Z,3.92
2022-08-12T05:50:36.348Z,4.63
2022-08-12T05:53:04.044Z,3.72
2022-08-12T05:55:31.799Z,3.40
2022-08-12T05:57:59.575Z,3.53
2022-08-12T06:00:26.919Z,3.08
2022-08-12T06:03:01.390Z,3.00
2022-08-12T06:05:51.872Z,2.72
2022-08-12T06:08:21.494Z,2.38
2022-08-12T06:10:50.495Z,3.00
2022-08-12T06:13:28.542Z,2.70
2022-08-12T06:16:07.533Z,3.20
2022-08-12T06:18:34.993Z,2.38
2022-08-12T06:21:02.557Z,2.70
2022-08-12T06:23:30.319Z,2.88
2022-08-12T06:25:57.992Z,3.08
2022-08-12T06:28:25.624Z,2.85
2022-08-12T06:31:22.223Z,2.55
2022-08-12T06:34:00.206Z,2.75
2022-08-12T06:36:32.618Z,2.75
2022-08-12T06:39:01.599Z,3.00
2022-08-12T06:42:02.482Z,2.25
2022-08-12T06:44:34.440Z,2.30
2022-08-12T06:47:01.443Z,2.40
2022-08-12T06:49:33.562Z,2.63
2022-08-12T06:52:00.488Z,2.78
2022-08-12T06:54:31.880Z,2.58
2022-08-12T06:57:04.889Z,2.22
2022-08-12T06:59:51.181Z,2.40
2022-08-12T07:02:22.662Z,2.10
2022-08-12T07:04:49.932Z,2.40
2022-08-12T07:07:16.848Z,2.00
2022-08-12T07:10:00.110Z,2.30
2022-08-12T07:12:32.271Z,2.20
2022-08-12T07:15:02.436Z,1.92
2022-08-12T07:17:37.446Z,2.28
2022-08-12T07:20:29.539Z,2.60
2022-08-12T07:22:57.881Z,2.50
2022-08-12T07:25:41.093Z,3.08
2022-08-12T07:28:23.657Z,2.35
2022-08-12T07:30:52.287Z,2.30
2022-08-12T07:33:28.273Z,2.00
2022-08-12T07:35:57.361Z,2.65
2022-08-12T07:38:28.954Z,2.53
2022-08-12T07:41:08.384Z,2.70
2022-08-12T07:43:54.549Z,2.55
2022-08-12T07:46:26.002Z,2.30
2022-08-12T07:48:55.176Z,2.42
2022-08-12T07:51:25.522Z,2.53
2022-08-12T07:54:00.250Z,2.42
2022-08-12T07:56:29.252Z,2.28
2022-08-12T07:58:59.513Z,2.65
2022-08-12T08:01:27.135Z,1.80
2022-08-12T08:04:18.507Z,2.60
2022-08-12T08:06:46.402Z,2.05
2022-08-12T08:09:15.155Z,2.22
2022-08-12T08:12:00.791Z,1.92
2022-08-12T08:14:32.979Z,2.30
2022-08-12T08:17:03.792Z,2.22
2022-08-12T08:19:32.548Z,2.10
2022-08-12T08:22:00.184Z,2.40
2022-08-12T08:24:29.127Z,2.30
2022-08-12T08:26:59.285Z,2.13
2022-08-12T08:29:26.884Z,1.92
2022-08-12T08:32:01.575Z,2.22
2022-08-12T08:34:54.191Z,2.08
2022-08-12T08:37:20.760Z,1.90
2022-08-12T08:39:47.850Z,2.15
2022-08-12T08:42:33.349Z,2.45
2022-08-12T08:45:01.417Z,2.08
2022-08-12T08:47:28.279Z,2.17
2022-08-12T08:50:01.176Z,1.50
2022-08-12T08:52:46.453Z,1.90
2022-08-12T08:55:16.451Z,1.92
2022-08-12T08:57:51.237Z,2.40
2022-08-12T09:00:20.257Z,2.13
2022-08-12T09:02:59.058Z,1.90
2022-08-12T09:05:27.932Z,2.20
2022-08-12T09:08:09.092Z,2.10
2022-08-12T09:10:45.751Z,2.00
2022-08-12T09:14:10.654Z,2.05
2022-08-12T09:16:20.060Z,2.05
2022-08-12T09:18:52.162Z,1.98
2022-08-12T09:21:20.774Z,1.83
2022-08-12T09:23:59.027Z,1.90
2022-08-12T09:26:29.601Z,1.92
2022-08-12T09:29:00.517Z,2.10
2022-08-12T09:32:03.131Z,1.90
2022-08-12T09:34:25.500Z,2.25
2022-08-12T09:37:02.980Z,2.05
2022-08-12T09:40:01.469Z,2.00
2022-08-12T09:43:11.026Z,1.85
2022-08-12T09:46:06.194Z,1.83
2022-08-12T09:48:35.215Z,1.83
2022-08-12T09:51:16.660Z,1.80
2022-08-12T09:54:05.412Z,1.92
2022-08-12T09:56:59.842Z,2.20
2022-08-12T10:00:16.904Z,2.08
2022-08-12T10:02:45.121Z,1.95
2022-08-12T10:04:57.991Z,1.80
2022-08-12T10:07:25.398Z,1.73
2022-08-12T10:09:58.259Z,1.50
2022-08-12T10:13:07.758Z,1.70
2022-08-12T10:16:01.541Z,1.55
2022-08-12T10:18:19.730Z,2.08
2022-08-12T10:20:46.857Z,1.80
2022-08-12T10:23:13.679Z,1.80
2022-08-12T10:26:36.646Z,1.50
2022-08-12T10:30:01.772Z,1.90
2022-08-12T10:32:20.792Z,1.70
2022-08-12T10:34:40.428Z,1.88
2022-08-12T10:38:07.393Z,1.92
2022-08-12T10:40:11.387Z,1.77
2022-08-12T10:43:00.681Z,1.73
2022-08-12T10:45:30.314Z,2.03
2022-08-12T10:48:20.456Z,1.52
2022-08-12T10:51:02.435Z,1.65
2022-08-12T10:53:45.019Z,1.85
2022-08-12T10:56:18.081Z,1.58
2022-08-12T10:58:47.077Z,1.45
2022-08-12T11:01:49.599Z,1.38
2022-08-12T11:04:27.160Z,1.48
2022-08-12T11:07:07.263Z,1.40
2022-08-12T11:09:55.741Z,1.27
2022-08-12T11:12:55.208Z,1.60
2022-08-12T11:15:21.264Z,1.30
2022-08-12T11:18:03.095Z,1.38
2022-08-12T11:20:31.072Z,1.83
2022-08-12T11:23:25.514Z,1.30
2022-08-12T11:25:57.628Z,1.30
2022-08-12T11:28:34.140Z,1.35
2022-08-12T11:31:03.549Z,1.20
2022-08-12T11:34:05.009Z,1.50
2022-08-12T11:36:22.023Z,1.05
2022-08-12T11:38:51.189Z,1.08
2022-08-12T11:41:31.304Z,1.33
2022-08-12T11:44:35.322Z,1.10
2022-08-12T11:46:54.743Z,1.55
2022-08-12T11:49:31.646Z,1.20
2022-08-12T11:52:03.747Z,1.00
2022-08-12T11:54:31.672Z,1.20
2022-08-12T11:57:02.099Z,1.20
2022-08-12T12:02:21.027Z,1.17
2022-08-12T12:04:52.562Z,1.25
2022-08-12T12:07:33.748Z,1.40
2022-08-12T12:10:11.225Z,1.20
2022-08-12T12:12:38.392Z,1.25
2022-08-12T12:15:09.680Z,1.10
2022-08-12T12:17:38.972Z,1.08
2022-08-12T12:20:09.556Z,0.88
2022-08-12T12:22:41.386Z,0.90
2022-08-12T12:25:13.052Z,1.40
2022-08-12T12:28:05.957Z,0.80
2022-08-12T12:30:36.496Z,0.85
2022-08-12T12:33:05.451Z,0.70
2022-08-12T12:36:18.136Z,1.05
2022-08-12T12:38:21.035Z,0.90
2022-08-12T12:40:52.593Z,0.90
2022-08-12T12:43:28.756Z,0.95
2022-08-12T12:46:07.050Z,0.93
2022-08-12T12:48:36.169Z,0.93
2022-08-12T12:51:48.385Z,1.08
2022-08-12T12:54:08.432Z,1.95
2022-08-12T12:56:42.541Z,1.02
2022-08-12T12:59:33.793Z,1.27
2022-08-12T13:02:08.138Z,1.00
2022-08-12T13:04:37.201Z,0.90
2022-08-12T13:07:06.877Z,1.10
2022-08-12T13:09:36.360Z,1.05
2022-08-12T13:12:10.439Z,1.10
2022-08-12T13:14:39.835Z,1.02
2022-08-12T13:17:09.747Z,0.90
2022-08-12T13:19:46.872Z,0.98
2022-08-12T13:22:20.527Z,0.90
2022-08-12T13:24:52.181Z,0.90
2022-08-12T13:27:22.676Z,0.63
2022-08-12T13:30:03.694Z,0.90
2022-08-12T13:32:31.823Z,1.15
2022-08-12T13:35:04.190Z,0.90
2022-08-12T13:37:56.752Z,1.10
2022-08-12T13:40:25.443Z,1.00
2022-08-12T13:42:57.869Z,1.00
2022-08-12T13:45:26.377Z,0.90
2022-08-12T13:48:04.734Z,1.05
2022-08-12T13:50:36.807Z,1.10
2022-08-12T13:53:24.911Z,0.77
2022-08-12T13:56:04.298Z,0.88
2022-08-12T13:58:34.642Z,0.80
2022-08-12T14:01:04.717Z,0.93
2022-08-12T14:03:51.065Z,0.90
2022-08-12T14:06:20.184Z,0.70
2022-08-12T14:08:50.896Z,0.70
2022-08-12T14:11:19.263Z,0.70
2022-08-12T14:14:03.427Z,0.70
2022-08-12T14:16:46.825Z,1.20
2022-08-12T14:19:22.333Z,0.70
2022-08-12T14:22:01.552Z,0.88
2022-08-12T14:24:40.845Z,0.70
2022-08-12T14:27:10.432Z,0.80
2022-08-12T14:30:06.123Z,0.68
2022-08-12T14:32:36.711Z,0.70
2022-08-12T14:35:11.084Z,0.70
2022-08-12T14:37:57.958Z,1.33
2022-08-12T14:40:30.331Z,0.57
2022-08-12T14:42:59.189Z,0.70
2022-08-12T14:45:44.448Z,0.50
2022-08-12T14:48:15.276Z,0.93
2022-08-12T14:51:09.739Z,0.70
2022-08-12T14:57:05.960Z,0.60
2022-08-12T14:59:26.982Z,0.88
2022-08-12T15:02:20.761Z,0.88
2022-08-12T15:04:56.221Z,0.55
2022-08-12T15:07:34.221Z,0.60
2022-08-12T15:10:10.874Z,0.50
2022-08-12T15:12:40.528Z,0.77
2022-08-12T15:15:10.330Z,0.90
2022-08-12T15:17:38.675Z,0.65
2022-08-12T15:20:31.134Z,0.65
2022-08-12T15:22:57.882Z,0.60
2022-08-12T15:25:25.497Z,0.88
2022-08-12T15:28:04.437Z,0.70
2022-08-12T15:30:41.045Z,0.85
2022-08-12T15:33:12.825Z,0.80
2022-08-12T15:35:52.265Z,1.20
2022-08-12T15:38:25.253Z,0.70
2022-08-12T15:40:53.536Z,0.77
2022-08-12T15:43:27.328Z,0.73
2022-08-12T15:46:15.637Z,0.75
2022-08-12T15:48:47.010Z,0.73
2022-08-12T15:51:57.250Z,0.77
2022-08-12T15:54:30.947Z,0.80
2022-08-12T15:57:07.697Z,0.65
2022-08-12T15:59:51.281Z,1.00
2022-08-12T16:02:19.874Z,0.82
2022-08-12T16:04:51.283Z,0.65
2022-08-12T16:07:29.984Z,0.90
2022-08-12T16:10:06.286Z,0.65
2022-08-12T16:12:43.302Z,0.70
2022-08-12T16:15:11.951Z,0.65
2022-08-12T16:18:19.289Z,0.60
2022-08-12T16:20:34.294Z,1.15
2022-08-12T16:23:04.746Z,0.60
2022-08-12T16:26:03.049Z,0.60
2022-08-12T16:28:32.243Z,0.60
2022-08-12T16:31:00.308Z,0.60
2022-08-12T16:33:59.391Z,0.43
2022-08-12T16:36:31.747Z,0.57
2022-08-12T16:39:01.479Z,0.70
2022-08-12T16:41:39.844Z,0.93
2022-08-12T16:44:09.019Z,0.65
2022-08-12T16:46:37.432Z,0.68
2022-08-12T16:49:08.997Z,0.70
2022-08-12T16:51:46.719Z,0.60
2022-08-12T16:54:21.912Z,0.70
2022-08-12T16:56:58.330Z,0.70
2022-08-12T16:59:53.432Z,0.70
2022-08-12T17:02:33.858Z,0.70
2022-08-12T17:05:05.128Z,1.00
2022-08-12T17:07:38.245Z,0.80
2022-08-12T17:10:13.552Z,1.00
2022-08-12T17:12:45.521Z,0.85
2022-08-12T17:15:50.112Z,0.80
2022-08-12T17:18:39.073Z,0.90
2022-08-12T17:20:56.422Z,0.90
2022-08-12T17:23:26.770Z,0.85
2022-08-12T17:26:02.399Z,0.95
2022-08-12T17:28:31.742Z,0.90
2022-08-12T17:31:01.024Z,0.95
2022-08-12T17:33:33.259Z,1.02
2022-08-12T17:36:05.777Z,0.82
2022-08-12T17:38:36.055Z,1.50
2022-08-12T17:41:22.235Z,0.82
2022-08-12T17:43:58.555Z,1.00
2022-08-12T17:46:33.259Z,1.30
2022-08-12T17:49:00.911Z,1.17
2022-08-12T17:51:50.504Z,1.25
2022-08-12T17:54:23.553Z,0.80
2022-08-12T17:56:51.300Z,1.05
2022-08-12T17:59:41.771Z,1.15
2022-08-12T18:02:08.226Z,1.40
2022-08-12T18:04:36.411Z,0.90
2022-08-12T18:07:06.288Z,1.02
2022-08-12T18:09:36.900Z,1.27
2022-08-12T18:12:26.809Z,1.30
2022-08-12T18:16:03.516Z,1.08
2022-08-12T18:18:01.790Z,0.90
2022-08-12T18:20:32.813Z,1.30
2022-08-12T18:23:04.623Z,1.35
2022-08-12T18:26:15.454Z,0.90
2022-08-12T18:28:43.237Z,1.20
2022-08-12T18:31:14.216Z,1.10
2022-08-12T18:33:46.111Z,1.10
2022-08-12T18:36:14.192Z,1.00
2022-08-12T18:38:51.351Z,1.20
2022-08-12T18:41:36.039Z,1.20
2022-08-12T18:44:08.083Z,1.08
2022-08-12T18:46:54.079Z,1.00
2022-08-12T18:49:30.603Z,1.13
2022-08-12T18:52:04.837Z,1.05
2022-08-12T18:54:36.128Z,1.13
2022-08-12T18:57:16.717Z,1.20
2022-08-12T19:00:00.683Z,1.73
2022-08-12T19:02:33.070Z,1.02
2022-08-12T19:05:09.309Z,1.33
2022-08-12T19:07:49.510Z,1.30
2022-08-12T19:10:23.130Z,1.40
2022-08-12T19:13:12.718Z,1.20
2022-08-12T19:15:45.586Z,1.35
2022-08-12T19:18:13.282Z,1.17
2022-08-12T19:20:42.058Z,1.48
2022-08-12T19:23:21.043Z,1.17
2022-08-12T19:25:59.260Z,1.23
2022-08-12T19:28:34.961Z,2.72
2022-08-12T19:31:55.516Z,1.65
2022-08-12T19:38:03.211Z,1.40
2022-08-12T19:40:31.785Z,1.15
2022-08-12T19:43:18.905Z,1.20
2022-08-12T19:45:56.546Z,1.52
2022-08-12T19:48:30.471Z,1.60
2022-08-12T19:50:59.347Z,1.38
2022-08-12T19:53:56.873Z,1.38
2022-08-12T19:56:25.188Z,1.58
2022-08-12T19:58:52.515Z,1.88
2022-08-12T20:01:21.638Z,1.70
2022-08-12T20:03:57.394Z,1.92
2022-08-12T20:06:29.259Z,1.90
2022-08-12T20:08:58.407Z,1.70
2022-08-12T20:12:09.029Z,1.40
2022-08-12T20:14:18.975Z,1.48
2022-08-12T20:16:51.609Z,1.67
2022-08-12T20:19:23.473Z,1.52
2022-08-12T20:21:50.562Z,1.80
2022-08-12T20:24:19.094Z,1.40
2022-08-12T20:26:46.514Z,1.80
2022-08-12T20:29:13.737Z,1.45
2022-08-12T20:31:41.502Z,1.40
2022-08-12T20:34:12.347Z,1.55
2022-08-12T20:36:44.971Z,1.35
2022-08-12T20:39:35.925Z,1.30
2022-08-12T20:42:07.254Z,1.80
2022-08-12T20:44:39.687Z,1.38
2022-08-12T20:47:20.263Z,1.60
2022-08-12T20:49:55.662Z,1.50
2022-08-12T20:52:30.220Z,1.50
2022-08-12T20:54:58.101Z,1.70
2022-08-12T20:57:38.131Z,1.50
2022-08-12T21:00:18.150Z,1.60
2022-08-12T21:02:50.409Z,1.70
2022-08-12T21:06:09.838Z,1.67
2022-08-12T21:08:26.666Z,1.35
2022-08-12T21:10:58.983Z,1.55
2022-08-12T21:13:27.089Z,1.60
2022-08-12T21:16:00.024Z,1.50
2022-08-12T21:18:29.071Z,2.03
2022-08-12T21:20:59.020Z,1.83
2022-08-12T21:23:30.753Z,1.95
2022-08-12T21:26:06.158Z,2.22
2022-08-12T21:28:38.500Z,1.88
2022-08-12T21:32:34.738Z,1.80
2022-08-12T21:34:07.960Z,1.60
2022-08-12T21:36:39.883Z,1.70
2022-08-12T21:39:18.934Z,2.00
2022-08-12T21:41:57.248Z,1.65
2022-08-12T21:45:48.438Z,1.67
2022-08-12T21:47:19.782Z,1.80
2022-08-12T21:49:55.745Z,1.80
2022-08-12T21:52:35.510Z,2.28
2022-08-12T21:55:18.280Z,2.00
2022-08-12T21:57:53.136Z,2.17
2022-08-12T22:00:31.943Z,1.90
2022-08-12T22:04:02.661Z,2.38
2022-08-12T22:06:31.419Z,1.90
2022-08-12T22:09:17.152Z,2.38
2022-08-12T22:11:57.006Z,2.30
2022-08-12T22:14:28.073Z,2.00
2022-08-12T22:16:56.919Z,2.27
2022-08-12T22:19:23.866Z,2.37
2022-08-12T22:21:53.758Z,2.30
2022-08-12T22:24:26.981Z,2.53
2022-08-12T22:27:17.879Z,2.00
2022-08-12T22:30:16.869Z,2.35
2022-08-12T22:32:50.134Z,2.50
2022-08-12T22:35:55.954Z,2.10
2022-08-12T22:38:24.119Z,2.10
2022-08-12T22:40:54.740Z,2.27
2022-08-12T22:43:58.965Z,1.88
2022-08-12T22:46:52.942Z,2.05
2022-08-12T22:49:36.878Z,2.15
2022-08-12T22:52:18.584Z,2.00
2022-08-12T22:55:03.802Z,1.98
2022-08-12T22:57:54.010Z,2.40
2022-08-12T23:00:24.301Z,1.65
2022-08-12T23:02:57.028Z,1.90
2022-08-12T23:05:36.872Z,2.13
2022-08-12T23:08:21.934Z,2.30
2022-08-12T23:10:49.743Z,2.03
2022-08-12T23:13:43.251Z,2.00
2022-08-12T23:16:28.387Z,2.10
2022-08-12T23:19:01.475Z,1.98
2022-08-12T23:22:06.714Z,2.40
2022-08-12T23:24:35.560Z,1.90
2022-08-12T23:27:23.691Z,2.27
2022-08-12T23:30:17.614Z,2.08
2022-08-12T23:32:38.571Z,2.30
2022-08-12T23:35:07.287Z,2.10
2022-08-12T23:37:47.841Z,2.40
2022-08-12T23:40:22.296Z,2.13
2022-08-12T23:42:51.239Z,2.40
2022-08-12T23:45:20.121Z,2.17
2022-08-12T23:48:00.202Z,2.00
2022-08-12T23:50:34.418Z,2.10
2022-08-12T23:53:06.597Z,2.00
2022-08-12T23:55:45.665Z,2.50
2022-08-12T23:58:22.877Z,2.17
